createdAt,value
2022-07-25T00:00:11.646Z,7.68
2022-07-25T00:02:39.311Z,7.20
2022-07-25T00:05:08.488Z,6.72
2022-07-25T00:07:36.151Z,7.07
2022-07-25T00:10:04.292Z,6.70
2022-07-25T00:12:32.088Z,7.22
2022-07-25T00:15:00.086Z,7.13
2022-07-25T00:17:29.188Z,7.10
2022-07-25T00:19:56.935Z,7.15
2022-07-25T00:22:24.836Z,6.55
2022-07-25T00:24:52.630Z,6.78
2022-07-25T00:27:20.508Z,6.90
2022-07-25T00:29:48.482Z,8.07
2022-07-25T00:32:16.650Z,7.38
2022-07-25T00:34:45.705Z,6.80
2022-07-25T00:37:13.374Z,7.15
2022-07-25T00:39:41.068Z,6.80
2022-07-25T00:42:08.949Z,7.13
2022-07-25T00:44:36.738Z,7.78
2022-07-25T00:47:04.813Z,7.40
2022-07-25T00:49:32.603Z,7.05
2022-07-25T00:52:02.603Z,7.18
2022-07-25T00:54:30.590Z,7.30
2022-07-25T00:56:58.255Z,7.20
2022-07-25T00:59:25.931Z,7.18
2022-07-25T01:01:54.109Z,7.28
2022-07-25T01:04:22.051Z,7.20
2022-07-25T01:06:49.794Z,7.45
2022-07-25T01:09:20.594Z,8.05
2022-07-25T01:11:48.303Z,7.25
2022-07-25T01:14:16.001Z,7.80
2022-07-25T01:16:43.739Z,7.32
2022-07-25T01:19:11.501Z,7.70
2022-07-25T01:21:42.363Z,7.10
2022-07-25T01:24:10.565Z,7.32
2022-07-25T01:26:38.484Z,6.88
2022-07-25T01:29:06.611Z,7.15
2022-07-25T01:31:34.775Z,7.22
2022-07-25T01:34:02.649Z,6.57
2022-07-25T01:36:30.712Z,7.45
2022-07-25T01:38:59.738Z,7.07
2022-07-25T01:41:27.412Z,7.65
2022-07-25T01:43:55.203Z,7.00
2022-07-25T01:46:23.104Z,6.68
2022-07-25T01:48:50.914Z,6.50
2022-07-25T01:51:20.350Z,6.30
2022-07-25T01:53:48.421Z,6.93
2022-07-25T01:56:17.415Z,7.00
2022-07-25T01:58:48.440Z,6.93
2022-07-25T02:01:16.289Z,7.40
2022-07-25T02:03:44.016Z,6.95
2022-07-25T02:06:11.679Z,6.65
2022-07-25T02:08:39.257Z,6.63
2022-07-25T02:11:07.329Z,6.50
2022-07-25T02:13:37.411Z,6.97
2022-07-25T02:16:05.738Z,6.10
2022-07-25T02:18:33.347Z,6.30
2022-07-25T02:21:01.133Z,6.63
2022-07-25T02:23:28.896Z,6.78
2022-07-25T02:25:56.632Z,6.65
2022-07-25T02:28:24.349Z,6.63
2022-07-25T02:30:53.577Z,6.57
2022-07-25T02:33:21.283Z,6.55
2022-07-25T02:35:49.109Z,6.05
2022-07-25T02:38:19.707Z,6.20
2022-07-25T02:40:47.883Z,6.05
2022-07-25T02:43:15.555Z,6.72
2022-07-25T02:45:43.621Z,6.50
2022-07-25T02:48:13.185Z,7.28
2022-07-25T02:50:40.861Z,7.25
2022-07-25T02:53:08.662Z,6.78
2022-07-25T02:55:36.385Z,6.47
2022-07-25T02:58:04.256Z,6.60
2022-07-25T03:00:32.143Z,6.45
2022-07-25T03:03:00.068Z,6.78
2022-07-25T03:05:29.342Z,6.65
2022-07-25T03:07:57.095Z,6.43
2022-07-25T03:10:24.833Z,5.78
2022-07-25T03:12:52.775Z,5.95
2022-07-25T03:15:20.446Z,5.85
2022-07-25T03:17:48.045Z,5.47
2022-07-25T03:20:15.661Z,5.47
2022-07-25T03:22:44.609Z,6.22
2022-07-25T03:25:15.799Z,5.25
2022-07-25T03:27:49.855Z,5.53
2022-07-25T03:30:17.915Z,4.63
2022-07-25T03:32:45.697Z,5.90
2022-07-25T03:35:13.367Z,5.15
2022-07-25T03:37:41.063Z,6.60
2022-07-25T03:40:11.457Z,5.70
2022-07-25T03:42:40.560Z,5.28
2022-07-25T03:45:09.552Z,5.07
2022-07-25T03:47:37.243Z,5.47
2022-07-25T03:50:05.514Z,5.20
2022-07-25T03:52:33.246Z,5.20
2022-07-25T03:55:00.874Z,5.30
2022-07-25T03:57:29.872Z,5.20
2022-07-25T03:59:57.512Z,4.88
2022-07-25T04:02:25.278Z,4.55
2022-07-25T04:04:52.947Z,4.90
2022-07-25T04:07:20.631Z,5.05
2022-07-25T04:09:48.289Z,4.70
2022-07-25T04:12:15.967Z,4.30
2022-07-25T04:14:44.959Z,4.88
2022-07-25T04:17:12.614Z,4.40
2022-07-25T04:19:40.653Z,4.53
2022-07-25T04:22:08.418Z,4.28
2022-07-25T04:24:36.047Z,4.68
2022-07-25T04:27:03.847Z,4.50
2022-07-25T04:29:31.489Z,4.60
2022-07-25T04:32:00.573Z,4.38
2022-07-25T04:34:28.361Z,4.50
2022-07-25T04:36:56.061Z,4.22
2022-07-25T04:39:23.799Z,4.05
2022-07-25T04:41:51.556Z,4.45
2022-07-25T04:44:19.207Z,4.80
2022-07-25T04:46:46.987Z,4.55
2022-07-25T04:49:16.075Z,4.28
2022-07-25T04:51:43.936Z,4.22
2022-07-25T04:54:11.603Z,5.47
2022-07-25T04:56:39.509Z,5.50
2022-07-25T04:59:07.477Z,4.72
2022-07-25T05:01:35.476Z,5.22
2022-07-25T05:04:03.571Z,9.38
2022-07-25T05:06:33.231Z,6.50
2022-07-25T05:09:00.891Z,6.13
2022-07-25T05:11:28.680Z,5.15
2022-07-25T05:13:56.501Z,4.43
2022-07-25T05:16:24.277Z,4.75
2022-07-25T05:18:52.039Z,6.90
2022-07-25T05:21:19.656Z,5.95
2022-07-25T05:23:48.750Z,4.63
2022-07-25T05:26:16.376Z,4.78
2022-07-25T05:28:44.328Z,5.70
2022-07-25T05:31:12.058Z,5.50
2022-07-25T05:33:39.992Z,4.90
2022-07-25T05:36:09.019Z,5.57
2022-07-25T05:38:37.152Z,5.72
2022-07-25T05:41:06.525Z,6.28
2022-07-25T05:43:34.394Z,4.75
2022-07-25T05:46:02.955Z,4.78
2022-07-25T05:48:31.143Z,5.70
2022-07-25T05:50:59.985Z,6.03
2022-07-25T05:53:27.704Z,4.93
2022-07-25T05:55:55.652Z,4.05
2022-07-25T05:58:29.735Z,5.00
2022-07-25T06:00:58.891Z,4.47
2022-07-25T06:03:26.993Z,4.40
2022-07-25T06:05:56.395Z,4.05
2022-07-25T06:08:24.093Z,3.72
2022-07-25T06:10:52.726Z,4.07
2022-07-25T06:13:20.908Z,3.60
2022-07-25T06:15:51.647Z,4.13
2022-07-25T06:18:20.151Z,4.40
2022-07-25T06:20:48.708Z,3.55
2022-07-25T06:23:16.358Z,3.67
2022-07-25T06:25:43.998Z,3.83
2022-07-25T06:28:18.420Z,4.22
2022-07-25T06:30:46.845Z,4.38
2022-07-25T06:33:15.843Z,3.63
2022-07-25T06:35:46.838Z,3.45
2022-07-25T06:38:15.869Z,3.35
2022-07-25T06:40:43.526Z,3.40
2022-07-25T06:43:11.359Z,3.60
2022-07-25T06:45:39.002Z,3.65
2022-07-25T06:48:07.087Z,4.50
2022-07-25T06:50:36.128Z,3.58
2022-07-25T06:53:03.947Z,3.95
2022-07-25T06:55:31.758Z,3.92
2022-07-25T06:57:59.652Z,3.80
2022-07-25T07:00:27.602Z,3.60
2022-07-25T07:02:58.337Z,3.63
2022-07-25T07:05:27.794Z,3.75
2022-07-25T07:07:57.317Z,3.90
2022-07-25T07:10:25.445Z,4.10
2022-07-25T07:13:04.043Z,7.57
2022-07-25T07:15:33.432Z,8.98
2022-07-25T07:18:01.165Z,14.27
2022-07-25T07:20:29.532Z,11.05
2022-07-25T07:22:58.852Z,9.98
2022-07-25T07:25:28.446Z,8.63
2022-07-25T07:27:56.410Z,4.80
2022-07-25T07:30:30.604Z,5.93
2022-07-25T07:33:12.153Z,6.93
2022-07-25T07:35:40.270Z,7.70
2022-07-25T07:38:09.456Z,6.00
2022-07-25T07:40:37.086Z,7.20
2022-07-25T07:43:04.789Z,8.60
2022-07-25T07:45:32.501Z,9.88
2022-07-25T07:48:00.521Z,7.03
2022-07-25T07:50:29.310Z,7.70
2022-07-25T07:52:58.162Z,5.07
2022-07-25T07:55:45.861Z,6.30
2022-07-25T07:58:16.575Z,6.60
2022-07-25T08:00:45.568Z,4.32
2022-07-25T08:03:13.933Z,10.98
2022-07-25T08:05:43.531Z,5.63
2022-07-25T08:08:12.784Z,6.72
2022-07-25T08:10:44.910Z,4.85
2022-07-25T08:13:14.227Z,7.40
2022-07-25T08:15:42.702Z,13.63
2022-07-25T08:18:16.867Z,10.40
2022-07-25T08:20:45.969Z,9.32
2022-07-25T08:23:14.461Z,10.73
2022-07-25T08:25:43.817Z,5.45
2022-07-25T08:28:11.857Z,5.10
2022-07-25T08:30:41.219Z,4.72
2022-07-25T08:33:13.129Z,6.88
2022-07-25T08:35:41.924Z,6.20
2022-07-25T08:38:11.403Z,5.38
2022-07-25T08:40:39.077Z,5.70
2022-07-25T08:43:12.529Z,6.60
2022-07-25T08:45:45.205Z,13.20
2022-07-25T08:48:13.376Z,11.90
2022-07-25T08:50:41.620Z,5.60
2022-07-25T08:53:32.084Z,5.18
2022-07-25T08:55:57.097Z,6.85
2022-07-25T08:58:26.115Z,5.45
2022-07-25T09:00:53.698Z,6.28
2022-07-25T09:03:21.415Z,5.53
2022-07-25T09:05:49.080Z,8.35
2022-07-25T09:08:18.752Z,6.00
2022-07-25T09:10:51.896Z,5.22
2022-07-25T09:13:21.310Z,5.13
2022-07-25T09:15:56.594Z,7.68
2022-07-25T09:18:26.089Z,7.18
2022-07-25T09:20:58.576Z,5.65
2022-07-25T09:23:31.665Z,6.50
2022-07-25T09:26:04.809Z,6.00
2022-07-25T09:28:33.448Z,5.50
2022-07-25T09:31:03.153Z,7.78
2022-07-25T09:33:31.338Z,5.95
2022-07-25T09:35:59.301Z,6.97
2022-07-25T09:38:27.077Z,5.80
2022-07-25T09:40:57.232Z,5.43
2022-07-25T09:43:35.855Z,6.68
2022-07-25T09:46:05.401Z,5.45
2022-07-25T09:48:33.735Z,6.00
2022-07-25T09:51:02.173Z,5.45
2022-07-25T09:53:30.660Z,4.95
2022-07-25T09:55:59.057Z,6.32
2022-07-25T09:58:28.214Z,5.63
2022-07-25T10:01:01.797Z,4.85
2022-07-25T10:03:49.264Z,7.63
2022-07-25T10:06:22.947Z,5.35
2022-07-25T10:08:51.687Z,7.38
2022-07-25T10:11:20.654Z,6.05
2022-07-25T10:13:52.293Z,8.60
2022-07-25T10:16:23.768Z,5.57
2022-07-25T10:18:55.688Z,6.68
2022-07-25T10:21:27.619Z,5.70
2022-07-25T10:24:01.575Z,5.45
2022-07-25T10:26:29.849Z,6.50
2022-07-25T10:28:58.866Z,5.30
2022-07-25T10:31:34.866Z,5.80
2022-07-25T10:34:07.665Z,6.35
2022-07-25T10:36:45.615Z,5.88
2022-07-25T10:39:16.296Z,5.65
2022-07-25T10:41:53.996Z,6.93
2022-07-25T10:44:22.250Z,5.93
2022-07-25T10:46:50.323Z,5.90
2022-07-25T10:49:31.069Z,6.10
2022-07-25T10:52:01.363Z,6.10
2022-07-25T10:54:34.939Z,5.45
2022-07-25T10:57:03.052Z,6.68
2022-07-25T10:59:33.721Z,7.10
2022-07-25T11:02:02.522Z,6.10
2022-07-25T11:04:32.109Z,6.13
2022-07-25T11:07:09.195Z,7.03
2022-07-25T11:09:37.273Z,6.18
2022-07-25T11:12:05.881Z,6.18
2022-07-25T11:14:37.390Z,5.45
2022-07-25T11:17:14.488Z,5.40
2022-07-25T11:19:44.577Z,5.57
2022-07-25T11:22:12.543Z,5.50
2022-07-25T11:24:42.192Z,5.55
2022-07-25T11:27:12.441Z,5.57
2022-07-25T11:29:41.454Z,4.97
2022-07-25T11:32:11.711Z,5.50
2022-07-25T11:34:42.331Z,6.55
2022-07-25T11:37:14.521Z,5.80
2022-07-25T11:39:44.535Z,7.38
2022-07-25T11:42:16.787Z,6.20
2022-07-25T11:44:47.999Z,7.05
2022-07-25T11:47:27.708Z,6.72
2022-07-25T11:49:57.007Z,5.85
2022-07-25T11:52:29.805Z,6.03
2022-07-25T11:54:59.284Z,5.78
2022-07-25T11:57:33.396Z,7.05
2022-07-25T12:00:02.719Z,7.65
2022-07-25T12:02:37.585Z,10.90
2022-07-25T12:05:07.456Z,8.88
2022-07-25T12:07:42.596Z,13.73
2022-07-25T12:10:15.583Z,13.48
2022-07-25T12:12:49.623Z,5.32
2022-07-25T12:15:21.038Z,7.78
2022-07-25T12:17:49.758Z,5.53
2022-07-25T12:20:19.316Z,4.85
2022-07-25T12:22:49.562Z,6.18
2022-07-25T12:25:17.750Z,6.00
2022-07-25T12:27:46.012Z,5.35
2022-07-25T12:30:15.810Z,4.57
2022-07-25T12:32:44.595Z,5.15
2022-07-25T12:35:14.822Z,6.60
2022-07-25T12:37:43.177Z,6.28
2022-07-25T12:40:15.204Z,5.20
2022-07-25T12:42:43.357Z,8.10
2022-07-25T12:45:12.239Z,5.57
2022-07-25T12:47:39.993Z,5.22
2022-07-25T12:50:09.982Z,6.90
2022-07-25T12:52:38.889Z,5.43
2022-07-25T12:55:08.360Z,5.68
2022-07-25T12:57:38.051Z,5.28
2022-07-25T13:00:08.756Z,5.30
2022-07-25T13:02:37.123Z,5.03
2022-07-25T13:05:05.331Z,5.68
2022-07-25T13:07:33.739Z,5.40
2022-07-25T13:10:01.819Z,5.75
2022-07-25T13:12:30.181Z,6.00
2022-07-25T13:14:59.214Z,5.15
2022-07-25T13:17:27.847Z,5.30
2022-07-25T13:19:56.281Z,6.00
2022-07-25T13:22:24.694Z,5.75
2022-07-25T13:24:53.265Z,6.22
2022-07-25T13:27:22.437Z,5.85
2022-07-25T13:29:54.137Z,6.00
2022-07-25T13:32:26.424Z,5.97
2022-07-25T13:34:54.194Z,5.78
2022-07-25T13:37:21.853Z,5.18
2022-07-25T13:39:49.911Z,6.80
2022-07-25T13:42:17.915Z,6.00
2022-07-25T13:44:45.728Z,5.70
2022-07-25T13:47:13.566Z,5.90
2022-07-25T13:49:42.838Z,5.40
2022-07-25T13:52:10.603Z,5.82
2022-07-25T13:54:38.781Z,5.60
2022-07-25T13:57:06.446Z,5.85
2022-07-25T13:59:34.195Z,5.57
2022-07-25T14:02:02.102Z,6.15
2022-07-25T14:04:30.559Z,5.70
2022-07-25T14:07:02.049Z,5.85
2022-07-25T14:09:31.062Z,5.78
2022-07-25T14:11:58.896Z,5.88
2022-07-25T14:14:26.742Z,5.45
2022-07-25T14:16:54.602Z,6.75
2022-07-25T14:19:24.105Z,6.30
2022-07-25T14:21:51.911Z,7.47
2022-07-25T14:24:21.087Z,6.78
2022-07-25T14:26:49.666Z,6.53
2022-07-25T14:29:17.320Z,7.05
2022-07-25T14:31:45.226Z,6.93
2022-07-25T14:34:15.311Z,6.90
2022-07-25T14:36:44.644Z,6.10
2022-07-25T14:39:12.314Z,5.53
2022-07-25T14:41:49.078Z,5.43
2022-07-25T14:44:16.797Z,5.60
2022-07-25T14:46:44.783Z,5.20
2022-07-25T14:49:13.848Z,4.50
2022-07-25T14:51:41.763Z,4.07
2022-07-25T14:54:09.914Z,4.30
2022-07-25T14:56:38.177Z,4.30
2022-07-25T14:59:08.054Z,5.78
2022-07-25T15:01:36.768Z,4.60
2022-07-25T15:04:05.718Z,4.47
2022-07-25T15:06:33.606Z,4.07
2022-07-25T15:09:01.268Z,3.63
2022-07-25T15:11:29.060Z,4.10
2022-07-25T15:13:57.184Z,4.43
2022-07-25T15:16:26.366Z,3.75
2022-07-25T15:19:15.838Z,4.40
2022-07-25T15:21:42.392Z,4.22
2022-07-25T15:24:10.179Z,4.22
2022-07-25T15:26:37.973Z,3.65
2022-07-25T15:29:08.234Z,3.60
2022-07-25T15:31:38.129Z,3.90
2022-07-25T15:34:05.935Z,4.85
2022-07-25T15:36:33.794Z,4.40
2022-07-25T15:39:01.574Z,5.18
2022-07-25T15:41:29.371Z,5.10
2022-07-25T15:43:57.141Z,5.60
2022-07-25T15:46:24.976Z,6.18
2022-07-25T15:48:54.356Z,7.03
2022-07-25T15:51:22.382Z,6.60
2022-07-25T15:53:50.242Z,7.00
2022-07-25T15:56:18.288Z,6.03
2022-07-25T15:58:48.978Z,5.47
2022-07-25T16:01:17.086Z,5.20
2022-07-25T16:03:45.380Z,5.35
2022-07-25T16:06:18.785Z,5.82
2022-07-25T16:08:46.879Z,5.65
2022-07-25T16:11:24.682Z,6.25
2022-07-25T16:13:52.480Z,6.22
2022-07-25T16:16:22.080Z,8.95
2022-07-25T16:18:50.122Z,5.78
2022-07-25T16:21:19.486Z,5.82
2022-07-25T16:23:47.570Z,6.65
2022-07-25T16:26:15.238Z,6.85
2022-07-25T16:28:43.222Z,6.20
2022-07-25T16:31:11.001Z,6.65
2022-07-25T16:33:39.129Z,6.05
2022-07-25T16:36:07.592Z,6.50
2022-07-25T16:38:36.709Z,6.93
2022-07-25T16:41:04.479Z,6.60
2022-07-25T16:43:35.337Z,6.85
2022-07-25T16:46:03.150Z,6.82
2022-07-25T16:48:31.932Z,6.47
2022-07-25T16:50:59.891Z,7.13
2022-07-25T16:53:28.236Z,5.90
2022-07-25T16:55:57.428Z,6.18
2022-07-25T16:58:25.211Z,6.25
2022-07-25T17:00:52.975Z,5.25
2022-07-25T17:03:21.685Z,4.85
2022-07-25T17:05:51.572Z,6.32
2022-07-25T17:08:19.768Z,6.95
2022-07-25T17:10:47.635Z,5.78
2022-07-25T17:13:19.355Z,5.35
2022-07-25T17:15:47.180Z,5.88
2022-07-25T17:18:15.070Z,4.18
2022-07-25T17:20:43.160Z,4.25
2022-07-25T17:23:11.070Z,4.43
2022-07-25T17:25:39.783Z,4.55
2022-07-25T17:28:08.536Z,3.45
2022-07-25T17:30:37.539Z,4.45
2022-07-25T17:33:05.567Z,3.63
2022-07-25T17:35:33.782Z,3.70
2022-07-25T17:38:01.846Z,3.55
2022-07-25T17:40:30.334Z,3.90
2022-07-25T17:42:58.622Z,3.47
2022-07-25T17:45:26.665Z,3.72
2022-07-25T17:47:55.835Z,4.15
2022-07-25T17:50:29.255Z,4.45
2022-07-25T17:52:59.479Z,3.70
2022-07-25T17:55:28.703Z,4.50
2022-07-25T17:57:58.577Z,4.00
2022-07-25T18:00:27.395Z,3.85
2022-07-25T18:02:56.601Z,4.05
2022-07-25T18:05:24.742Z,4.45
2022-07-25T18:07:53.618Z,4.05
2022-07-25T18:10:22.401Z,3.45
2022-07-25T18:12:51.159Z,4.03
2022-07-25T18:15:19.145Z,3.70
2022-07-25T18:17:49.485Z,4.07
2022-07-25T18:20:18.686Z,4.35
2022-07-25T18:22:46.874Z,4.35
2022-07-25T18:25:15.918Z,3.50
2022-07-25T18:27:44.967Z,4.13
2022-07-25T18:30:13.855Z,3.80
2022-07-25T18:32:42.711Z,3.55
2022-07-25T18:35:11.798Z,3.97
2022-07-25T18:37:41.082Z,3.53
2022-07-25T18:40:10.138Z,4.25
2022-07-25T18:42:38.104Z,3.63
2022-07-25T18:45:07.145Z,3.85
2022-07-25T18:47:36.053Z,4.05
2022-07-25T18:50:05.620Z,3.97
2022-07-25T18:52:36.206Z,3.70
2022-07-25T18:55:07.374Z,3.28
2022-07-25T18:57:35.440Z,3.78
2022-07-25T19:00:03.949Z,4.20
2022-07-25T19:02:31.693Z,3.85
2022-07-25T19:04:59.945Z,3.80
2022-07-25T19:07:29.785Z,4.00
2022-07-25T19:09:57.778Z,3.72
2022-07-25T19:12:27.301Z,3.50
2022-07-25T19:14:55.526Z,3.80
2022-07-25T19:17:24.011Z,4.32
2022-07-25T19:19:51.816Z,3.83
2022-07-25T19:22:19.579Z,3.60
2022-07-25T19:24:47.546Z,4.10
2022-07-25T19:27:15.457Z,3.90
2022-07-25T19:29:44.706Z,4.03
2022-07-25T19:32:12.696Z,4.25
2022-07-25T19:34:44.043Z,4.55
2022-07-25T19:37:11.768Z,4.68
2022-07-25T19:39:39.517Z,4.15
2022-07-25T19:42:09.830Z,5.63
2022-07-25T19:44:37.845Z,3.97
2022-07-25T19:47:11.314Z,3.67
2022-07-25T19:49:39.672Z,3.88
2022-07-25T19:52:08.278Z,4.10
2022-07-25T19:54:36.539Z,5.50
2022-07-25T19:57:05.355Z,3.88
2022-07-25T19:59:33.352Z,4.00
2022-07-25T20:02:01.809Z,4.20
2022-07-25T20:04:31.055Z,3.67
2022-07-25T20:07:02.388Z,4.05
2022-07-25T20:09:30.470Z,3.50
2022-07-25T20:11:58.696Z,4.47
2022-07-25T20:14:26.775Z,3.58
2022-07-25T20:16:54.814Z,4.03
2022-07-25T20:19:22.818Z,4.43
2022-07-25T20:21:52.138Z,4.55
2022-07-25T20:24:21.973Z,5.32
2022-07-25T20:26:52.957Z,4.35
2022-07-25T20:29:20.936Z,3.92
2022-07-25T20:31:48.861Z,4.18
2022-07-25T20:34:17.029Z,4.30
2022-07-25T20:36:48.121Z,4.13
2022-07-25T20:39:17.278Z,4.15
2022-07-25T20:41:46.147Z,3.60
2022-07-25T20:44:14.212Z,4.15
2022-07-25T20:46:41.975Z,3.70
2022-07-25T20:49:10.910Z,3.85
2022-07-25T20:51:41.285Z,3.97
2022-07-25T20:54:09.392Z,3.90
2022-07-25T20:56:38.479Z,3.72
2022-07-25T20:59:07.190Z,4.18
2022-07-25T21:01:36.416Z,3.70
2022-07-25T21:04:07.630Z,3.50
2022-07-25T21:06:36.968Z,3.55
2022-07-25T21:09:06.084Z,3.47
2022-07-25T21:11:35.558Z,3.72
2022-07-25T21:14:05.841Z,3.45
2022-07-25T21:16:34.506Z,3.58
2022-07-25T21:19:05.164Z,3.38
2022-07-25T21:21:33.363Z,3.60
2022-07-25T21:24:03.685Z,4.00
2022-07-25T21:26:31.647Z,4.22
2022-07-25T21:28:59.777Z,4.07
2022-07-25T21:31:29.170Z,4.65
2022-07-25T21:33:56.989Z,4.35
2022-07-25T21:36:25.119Z,4.55
2022-07-25T21:38:53.034Z,4.80
2022-07-25T21:41:20.915Z,5.38
2022-07-25T21:43:48.789Z,4.90
2022-07-25T21:46:16.629Z,4.95
2022-07-25T21:49:03.591Z,5.38
2022-07-25T21:51:40.366Z,4.43
2022-07-25T21:54:09.054Z,3.67
2022-07-25T21:56:36.828Z,4.18
2022-07-25T21:59:05.399Z,4.00
2022-07-25T22:01:33.685Z,3.83
2022-07-25T22:04:03.149Z,4.80
2022-07-25T22:06:30.848Z,4.28
2022-07-25T22:08:58.621Z,3.55
2022-07-25T22:11:42.275Z,3.97
2022-07-25T22:14:14.083Z,3.90
2022-07-25T22:16:41.946Z,3.70
2022-07-25T22:19:11.484Z,4.50
2022-07-25T22:21:40.867Z,3.05
2022-07-25T22:24:09.406Z,4.47
2022-07-25T22:26:38.178Z,4.47
2022-07-25T22:29:06.246Z,3.65
2022-07-25T22:31:34.291Z,3.70
2022-07-25T22:34:02.110Z,3.90
2022-07-25T22:36:31.095Z,3.80
2022-07-25T22:38:58.734Z,3.65
2022-07-25T22:41:26.353Z,3.40
2022-07-25T22:43:58.885Z,3.42
2022-07-25T22:46:29.181Z,3.17
2022-07-25T22:48:57.260Z,3.72
2022-07-25T22:51:25.451Z,3.50
2022-07-25T22:53:54.617Z,4.28
2022-07-25T22:56:23.181Z,3.35
2022-07-25T22:58:50.920Z,3.53
2022-07-25T23:01:18.676Z,3.90
2022-07-25T23:03:47.010Z,3.47
2022-07-25T23:06:14.664Z,4.05
2022-07-25T23:08:42.371Z,3.72
2022-07-25T23:11:11.510Z,2.90
2022-07-25T23:13:39.281Z,3.15
2022-07-25T23:16:10.145Z,3.28
2022-07-25T23:18:38.630Z,2.78
2022-07-25T23:21:06.763Z,3.58
2022-07-25T23:23:34.569Z,2.97
2022-07-25T23:26:02.415Z,3.20
2022-07-25T23:28:31.538Z,2.80
2022-07-25T23:30:59.331Z,2.90
2022-07-25T23:33:29.231Z,3.47
2022-07-25T23:35:58.091Z,3.60
2022-07-25T23:38:26.239Z,4.00
2022-07-25T23:40:54.888Z,4.85
2022-07-25T23:43:56.290Z,3.88
2022-07-25T23:46:11.829Z,4.47
2022-07-25T23:48:39.600Z,3.65
2022-07-25T23:51:07.783Z,4.28
2022-07-25T23:53:36.173Z,4.38
2022-07-25T23:56:04.067Z,4.50
2022-07-25T23:58:31.827Z,4.00
